Time;durP1;ratioP1;P1;durP2;ratioP2;P2;SDS_P1;SDS_P2;PMS_P1;PMS_P2;Temp;Humidity;BMP_temperature;BMP_pressure;BME280_temperature;BME280_humidity;BME280_pressure;Samples;Min_cycle;Max_cycle;Signal;HPM_P1;HPM_P2
2024/03/05 00:01:36;;;;;;;11.18;6.32;;;6.50;24.30;;;;;;20667879;28;20062;-39
2024/03/05 00:11:37;;;;;;;12.13;7.20;;;6.30;26.20;;;;;;20668328;28;20045;-40
2024/03/05 00:21:38;;;;;;;16.27;8.10;;;6.30;29.50;;;;;;20648193;28;20049;-39
2024/03/05 00:31:40;;;;;;;13.25;8.00;;;6.30;34.00;;;;;;20647313;28;20131;-39
2024/03/05 00:41:41;;;;;;;14.80;8.57;;;6.20;38.30;;;;;;20693999;28;20536;-39
2024/03/05 00:51:42;;;;;;;15.30;8.73;;;6.10;35.90;;;;;;20667072;28;20034;-39
2024/03/05 01:01:43;;;;;;;14.43;8.57;;;6.10;40.10;;;;;;20634792;28;20108;-39
2024/03/05 01:11:44;;;;;;;16.95;9.48;;;6.00;43.50;;;;;;20636952;28;20501;-39
2024/03/05 01:21:44;;;;;;;17.73;9.80;;;5.90;43.00;;;;;;20660138;28;20557;-40
2024/03/05 01:31:45;;;;;;;18.00;9.25;;;5.90;57.20;;;;;;20665514;28;20445;-39
2024/03/05 01:41:46;;;;;;;16.38;9.90;;;5.90;59.40;;;;;;20688526;28;20523;-39
2024/03/05 01:51:47;;;;;;;17.30;10.40;;;5.80;60.60;;;;;;20696292;28;20485;-39
2024/03/05 02:01:48;;;;;;;19.08;10.85;;;5.80;65.20;;;;;;20704879;28;20405;-39
2024/03/05 02:11:49;;;;;;;20.85;11.43;;;5.90;83.70;;;;;;20703831;28;20054;-40
2024/03/05 02:22:02;;;;;;;19.25;11.32;;;5.90;90.60;;;;;;20682886;28;20033;-39
2024/03/05 02:32:03;;;;;;;21.85;11.82;;;5.90;92.10;;;;;;20707007;28;20519;-39
2024/03/05 02:42:04;;;;;;;20.63;11.25;;;5.80;92.20;;;;;;20664990;28;20544;-39
2024/03/05 02:52:05;;;;;;;23.73;12.38;;;5.80;96.40;;;;;;20669225;28;20069;-39
2024/03/05 03:02:05;;;;;;;22.60;12.13;;;5.70;97.10;;;;;;20696592;28;20462;-41
2024/03/05 03:12:06;;;;;;;24.30;12.40;;;5.70;95.50;;;;;;20675132;28;20042;-40
2024/03/05 03:22:07;;;;;;;24.52;11.82;;;5.60;99.90;;;;;;20684590;28;20548;-40
2024/03/05 03:32:10;;;;;;;28.08;12.35;;;5.60;95.20;;;;;;20693938;28;20033;-40
2024/03/05 03:42:10;;;;;;;28.60;14.20;;;5.60;99.90;;;;;;20669034;28;20038;-40
2024/03/05 03:52:11;;;;;;;25.90;14.02;;;5.60;99.90;;;;;;20694733;28;20141;-40
2024/03/05 04:02:11;;;;;;;26.23;13.27;;;5.70;99.90;;;;;;20647483;28;20608;-39
2024/03/05 04:12:13;;;;;;;24.70;13.90;;;5.70;99.90;;;;;;20699655;28;20065;-40
2024/03/05 04:22:14;;;;;;;26.50;13.80;;;5.70;99.90;;;;;;20647831;28;20599;-39
2024/03/05 04:32:15;;;;;;;27.65;14.05;;;5.80;99.90;;;;;;20684360;28;20042;-38
2024/03/05 04:42:16;;;;;;;27.63;13.43;;;5.80;99.90;;;;;;20616684;28;20524;-39
2024/03/05 04:52:16;;;;;;;31.58;15.75;;;5.80;99.90;;;;;;20686419;28;20477;-39
2024/03/05 05:02:17;;;;;;;28.33;14.40;;;5.80;99.90;;;;;;20617770;28;20037;-40
2024/03/05 05:12:18;;;;;;;31.63;15.07;;;5.80;99.90;;;;;;20686611;28;20034;-39
2024/03/05 05:22:18;;;;;;;31.53;16.07;;;5.80;99.90;;;;;;20670111;28;20788;-39
2024/03/05 05:32:20;;;;;;;29.77;16.10;;;5.80;99.90;;;;;;20698588;28;20512;-39
2024/03/05 05:42:23;;;;;;;30.50;14.55;;;5.80;99.90;;;;;;20676945;28;20572;-39
2024/03/05 05:52:24;;;;;;;32.42;15.35;;;5.80;99.90;;;;;;20683622;28;20038;-39
2024/03/05 06:02:26;;;;;;;36.97;17.45;;;5.90;99.90;;;;;;20704156;28;20049;-40
2024/03/05 06:12:27;;;;;;;35.45;17.63;;;6.00;99.90;;;;;;20703947;28;20038;-39
2024/03/05 06:22:28;;;;;;;37.08;18.52;;;6.10;99.90;;;;;;20703607;28;20045;-39
2024/03/05 06:32:30;;;;;;;43.45;19.80;;;6.20;99.90;;;;;;20671924;28;20045;-39
2024/03/05 06:42:32;;;;;;;46.40;19.00;;;6.30;99.90;;;;;;20691152;28;20064;-39
2024/03/05 07:02:53;;;;;;;45.85;21.17;;;6.30;99.90;;;;;;20652517;28;20442;-39
2024/03/05 07:12:55;;;;;;;43.22;21.02;;;6.40;99.90;;;;;;20622405;28;20548;-39
2024/03/05 07:22:55;;;;;;;44.63;21.08;;;6.50;99.90;;;;;;20668329;28;20045;-39
2024/03/05 07:32:56;;;;;;;48.33;21.33;;;6.50;99.90;;;;;;20683779;28;20041;-39
2024/03/05 07:42:58;;;;;;;60.08;23.48;;;6.70;99.90;;;;;;20653138;28;20543;-39
2024/03/05 07:52:59;;;;;;;55.65;23.95;;;6.70;99.90;;;;;;20645900;28;20037;-39
2024/03/05 08:02:59;;;;;;;66.32;26.45;;;6.70;99.90;;;;;;20687539;28;20042;-40
2024/03/05 08:13:01;;;;;;;67.88;27.23;;;6.80;99.90;;;;;;20643870;28;20041;-38
2024/03/05 08:23:02;;;;;;;93.32;34.38;;;6.80;99.90;;;;;;20646925;28;20038;-38
2024/03/05 08:33:05;;;;;;;76.93;31.70;;;7.00;99.90;;;;;;20668589;28;20054;-38
2024/03/05 08:43:09;;;;;;;71.63;31.17;;;7.10;99.90;;;;;;20672980;28;20049;-39
2024/03/05 08:53:09;;;;;;;68.20;30.90;;;7.20;99.90;;;;;;20688322;28;20056;-38
2024/03/05 09:03:13;;;;;;;74.00;31.95;;;7.20;99.90;;;;;;20693373;28;20982;-39
2024/03/05 09:13:14;;;;;;;76.22;31.13;;;7.30;99.90;;;;;;20686906;28;20049;-38
2024/03/05 09:23:15;;;;;;;88.13;35.65;;;7.20;99.90;;;;;;20622643;28;20129;-38
2024/03/05 09:33:15;;;;;;;70.07;32.47;;;7.30;99.90;;;;;;20657825;28;20041;-38
2024/03/05 09:43:19;;;;;;;70.07;31.87;;;7.40;99.90;;;;;;20690318;28;20145;-39
2024/03/05 09:53:20;;;;;;;80.93;35.15;;;7.50;99.90;;;;;;20670511;28;20034;-39
2024/03/05 10:03:20;;;;;;;73.95;33.92;;;7.50;99.90;;;;;;20706375;28;20104;-38
2024/03/05 10:13:21;;;;;;;72.70;34.88;;;7.70;99.90;;;;;;20698908;28;20389;-38
2024/03/05 10:23:23;;;;;;;65.40;32.75;;;7.70;99.90;;;;;;20698305;28;20048;-38
2024/03/05 10:33:26;;;;;;;57.80;29.10;;;7.80;99.90;;;;;;20703854;28;20056;-39
2024/03/05 10:43:28;;;;;;;57.08;27.92;;;7.80;99.90;;;;;;20647855;28;20581;-39
2024/03/05 10:53:31;;;;;;;68.38;32.90;;;8.00;99.90;;;;;;20695497;28;20050;-39
2024/03/05 11:03:44;;;;;;;48.65;25.83;;;8.00;99.90;;;;;;20697157;28;20044;-38
2024/03/05 11:13:49;;;;;;;61.63;30.67;;;8.10;99.90;;;;;;20689682;28;20046;-39
2024/03/05 11:23:52;;;;;;;58.78;31.17;;;8.10;99.90;;;;;;20701505;28;20494;-39
2024/03/05 11:34:12;;;;;;;60.65;31.85;;;8.30;99.90;;;;;;20699340;28;20096;-39
2024/03/05 11:44:35;;;;;;;53.55;27.52;;;8.40;99.90;;;;;;20666028;28;20042;-39
2024/03/05 11:54:35;;;;;;;41.08;23.95;;;8.40;99.90;;;;;;20676978;28;20057;-39
2024/03/05 12:04:36;;;;;;;46.00;24.70;;;8.30;99.20;;;;;;20694561;28;20046;-39
2024/03/05 12:14:53;;;;;;;45.00;24.73;;;8.20;94.20;;;;;;20690370;28;20519;-39
2024/03/05 12:24:53;;;;;;;39.22;21.83;;;8.20;75.80;;;;;;20646446;28;20444;-39
2024/03/05 12:34:54;;;;;;;34.95;20.55;;;8.20;74.30;;;;;;20639102;28;20054;-38
2024/03/05 12:45:06;;;;;;;37.55;21.80;;;8.30;75.10;;;;;;20693418;28;20042;-39
2024/03/05 12:55:09;;;;;;;31.30;19.35;;;8.40;71.10;;;;;;20633257;28;20402;-39
2024/03/05 13:05:10;;;;;;;31.55;19.70;;;8.50;67.50;;;;;;20681896;28;20049;-38
2024/03/05 13:15:11;;;;;;;27.55;17.10;;;8.60;65.10;;;;;;20675549;28;20089;-39
2024/03/05 13:25:17;;;;;;;33.50;18.50;;;8.70;32.50;;;;;;20653091;28;20501;-39
2024/03/05 13:35:18;;;;;;;30.15;18.27;;;8.60;31.40;;;;;;20688116;28;20037;-39
2024/03/05 13:45:19;;;;;;;31.45;18.48;;;8.70;22.10;;;;;;20696938;28;20048;-39
2024/03/05 13:55:25;;;;;;;26.57;16.90;;;8.60;22.40;;;;;;20704466;28;20041;-38
2024/03/05 14:05:28;;;;;;;31.83;20.10;;;8.40;28.80;;;;;;20678784;28;20864;-39
2024/03/05 14:15:29;;;;;;;27.70;18.85;;;8.40;41.70;;;;;;20687288;28;20336;-39
2024/03/05 14:25:29;;;;;;;27.83;17.80;;;8.50;57.00;;;;;;20693383;28;20467;-39
2024/03/05 14:35:30;;;;;;;33.88;20.55;;;8.60;70.80;;;;;;20682297;28;20038;-39
2024/03/05 14:45:31;;;;;;;33.42;21.38;;;8.70;83.80;;;;;;20677476;28;20522;-39
2024/03/05 14:55:31;;;;;;;33.95;21.50;;;8.80;83.20;;;;;;20693421;28;20197;-38
2024/03/05 15:05:32;;;;;;;30.17;18.40;;;8.80;79.30;;;;;;20688654;28;20722;-39
2024/03/05 15:15:33;;;;;;;27.33;17.23;;;8.70;64.70;;;;;;20668126;28;20045;-38
2024/03/05 15:25:35;;;;;;;31.02;20.80;;;8.70;71.50;;;;;;20659841;28;20038;-39
2024/03/05 15:35:36;;;;;;;33.00;21.85;;;8.70;73.70;;;;;;20688660;28;20567;-39
2024/03/05 15:45:37;;;;;;;35.03;21.83;;;8.70;81.00;;;;;;20644737;28;20041;-39
2024/03/05 15:55:42;;;;;;;26.98;17.70;;;8.80;87.30;;;;;;20687693;28;20046;-39
2024/03/05 16:05:46;;;;;;;23.52;16.73;;;8.70;81.90;;;;;;20680987;28;20092;-39
2024/03/05 16:15:48;;;;;;;33.90;22.00;;;8.60;90.30;;;;;;20689404;28;20147;-39
2024/03/05 16:25:51;;;;;;;28.17;19.23;;;8.60;92.10;;;;;;20639202;28;20049;-39
2024/03/05 16:35:52;;;;;;;25.40;17.48;;;8.50;92.40;;;;;;20655313;28;20049;-39
2024/03/05 16:45:52;;;;;;;32.63;21.50;;;8.50;94.90;;;;;;20678841;28;20524;-39
2024/03/05 16:55:53;;;;;;;28.70;19.43;;;8.40;99.90;;;;;;20696027;28;20580;-39
2024/03/05 17:05:54;;;;;;;27.77;19.40;;;8.40;99.90;;;;;;20699448;28;20437;-39
2024/03/05 17:15:57;;;;;;;35.58;21.55;;;8.30;99.90;;;;;;20682608;28;20415;-39
2024/03/05 17:25:58;;;;;;;30.08;20.00;;;8.30;99.90;;;;;;20688717;28;20045;-39
2024/03/05 17:35:59;;;;;;;31.83;21.30;;;8.20;99.90;;;;;;20657138;28;20137;-39
2024/03/05 17:46:01;;;;;;;37.13;24.10;;;8.10;99.90;;;;;;20681670;28;20049;-39
2024/03/05 17:56:05;;;;;;;34.58;22.83;;;8.10;99.90;;;;;;20683672;28;20061;-39
2024/03/05 18:06:05;;;;;;;37.55;23.77;;;8.00;99.90;;;;;;20702658;28;20037;-39
2024/03/05 18:16:06;;;;;;;36.97;24.20;;;8.00;99.90;;;;;;20700658;28;20088;-39
2024/03/05 18:26:06;;;;;;;42.27;26.87;;;7.90;99.90;;;;;;20699491;28;20941;-39
2024/03/05 18:36:08;;;;;;;41.60;25.58;;;7.90;99.90;;;;;;20686947;28;20470;-41
2024/03/05 18:46:09;;;;;;;39.83;25.27;;;7.80;99.90;;;;;;20682997;28;20046;-38
2024/03/05 18:56:11;;;;;;;39.95;26.90;;;7.70;99.90;;;;;;20652526;28;20148;-39
2024/03/05 19:06:11;;;;;;;40.90;26.33;;;7.70;99.90;;;;;;20690572;28;20235;-39
2024/03/05 19:16:14;;;;;;;40.83;25.90;;;7.60;99.90;;;;;;20638338;28;20038;-39
2024/03/05 19:26:15;;;;;;;44.58;27.70;;;7.60;99.90;;;;;;20701942;28;21047;-39
2024/03/05 19:36:18;;;;;;;44.97;27.88;;;7.60;99.90;;;;;;20649634;28;20046;-39
2024/03/05 19:46:19;;;;;;;42.83;27.75;;;7.60;99.90;;;;;;20704613;28;20042;-39
2024/03/05 19:56:20;;;;;;;42.75;26.27;;;7.60;99.90;;;;;;20690434;28;20073;-39
2024/03/05 20:06:21;;;;;;;42.80;27.02;;;7.60;99.90;;;;;;20702492;28;20048;-39
2024/03/05 20:16:22;;;;;;;40.72;25.65;;;7.60;99.90;;;;;;20663534;28;20369;-39
2024/03/05 20:26:22;;;;;;;44.65;28.15;;;7.60;99.90;;;;;;20686030;28;20358;-39
2024/03/05 20:36:24;;;;;;;45.72;28.52;;;7.60;99.90;;;;;;20676635;28;20496;-39
2024/03/05 20:46:25;;;;;;;45.55;28.35;;;7.60;99.90;;;;;;20679350;28;20034;-39
2024/03/05 20:56:26;;;;;;;41.53;26.95;;;7.60;99.90;;;;;;20686577;28;20074;-38
2024/03/05 21:06:26;;;;;;;38.20;25.33;;;7.70;99.90;;;;;;20682907;28;20522;-41
2024/03/05 21:16:27;;;;;;;41.17;25.40;;;7.60;99.90;;;;;;20693337;28;20236;-41
2024/03/05 21:26:28;;;;;;;37.70;24.98;;;7.70;99.90;;;;;;20704809;28;20100;-38
2024/03/05 21:36:29;;;;;;;36.80;25.08;;;7.70;99.90;;;;;;20701498;28;20037;-38
2024/03/05 21:46:29;;;;;;;41.40;25.98;;;7.80;99.90;;;;;;20701194;28;20030;-38
2024/03/05 21:56:30;;;;;;;35.90;22.60;;;7.70;99.90;;;;;;20687009;28;20042;-38
2024/03/05 22:06:32;;;;;;;45.20;26.92;;;7.70;99.90;;;;;;20683397;28;20046;-38
2024/03/05 22:16:32;;;;;;;41.85;27.35;;;7.70;99.90;;;;;;20654642;28;20042;-39
2024/03/05 22:26:33;;;;;;;40.25;26.90;;;7.70;99.90;;;;;;20612891;28;20041;-38
2024/03/05 22:36:34;;;;;;;39.70;26.08;;;7.60;99.90;;;;;;20688256;28;20524;-41
2024/03/05 22:46:35;;;;;;;39.90;24.88;;;7.60;99.90;;;;;;20694385;28;20139;-41
2024/03/05 22:56:35;;;;;;;34.78;23.20;;;7.50;99.90;;;;;;20689827;28;20038;-41
2024/03/05 23:06:36;;;;;;;37.28;24.13;;;7.40;99.90;;;;;;20685825;28;20045;-38
2024/03/05 23:16:37;;;;;;;36.93;23.97;;;7.20;99.90;;;;;;20698473;28;20049;-38
2024/03/05 23:26:37;;;;;;;37.27;23.60;;;7.00;99.90;;;;;;20705507;28;20837;-41
2024/03/05 23:36:38;;;;;;;36.10;22.63;;;6.80;99.90;;;;;;20702414;28;20477;-41
2024/03/05 23:46:38;;;;;;;37.90;23.73;;;6.70;99.90;;;;;;20700892;28;20065;-39
2024/03/05 23:56:39;;;;;;;36.93;23.43;;;6.60;99.90;;;;;;20705937;28;20659;-38
